sensor_id;sensor_type;location;lat;lon;timestamp;temperature;humidity
18670;DHT22;9464;44.918;9.670;2023-04-01T00:00:09;13.30;1.00
18670;DHT22;9464;44.918;9.670;2023-04-01T00:02:37;13.30;1.00
18670;DHT22;9464;44.918;9.670;2023-04-01T00:05:07;13.30;1.00
18670;DHT22;9464;44.918;9.670;2023-04-01T00:07:37;13.20;1.00
18670;DHT22;9464;44.918;9.670;2023-04-01T00:10:07;13.10;1.00
18670;DHT22;9464;44.918;9.670;2023-04-01T00:12:36;13.10;1.00
18670;DHT22;9464;44.918;9.670;2023-04-01T00:15:05;13.10;1.00
18670;DHT22;9464;44.918;9.670;2023-04-01T00:17:35;13.00;1.00
18670;DHT22;9464;44.918;9.670;2023-04-01T00:20:05;13.00;1.00
18670;DHT22;9464;44.918;9.670;2023-04-01T00:22:34;13.00;1.00
18670;DHT22;9464;44.918;9.670;2023-04-01T00:25:02;13.00;1.00
18670;DHT22;9464;44.918;9.670;2023-04-01T00:27:31;13.00;1.00
18670;DHT22;9464;44.918;9.670;2023-04-01T00:29:59;13.00;1.00
18670;DHT22;9464;44.918;9.670;2023-04-01T00:32:27;13.00;1.00
18670;DHT22;9464;44.918;9.670;2023-04-01T00:34:58;13.00;1.00
18670;DHT22;9464;44.918;9.670;2023-04-01T00:37:27;13.00;1.00
18670;DHT22;9464;44.918;9.670;2023-04-01T00:39:56;13.00;1.00
18670;DHT22;9464;44.918;9.670;2023-04-01T00:42:25;13.00;1.00
18670;DHT22;9464;44.918;9.670;2023-04-01T00:44:54;13.00;1.00
18670;DHT22;9464;44.918;9.670;2023-04-01T00:47:24;13.00;1.00
18670;DHT22;9464;44.918;9.670;2023-04-01T00:49:54;13.00;1.00
18670;DHT22;9464;44.918;9.670;2023-04-01T00:52:25;13.00;1.00
18670;DHT22;9464;44.918;9.670;2023-04-01T00:54:57;12.90;1.00
18670;DHT22;9464;44.918;9.670;2023-04-01T00:57:31;12.80;1.00
18670;DHT22;9464;44.918;9.670;2023-04-01T01:00:00;12.60;1.00
18670;DHT22;9464;44.918;9.670;2023-04-01T01:02:29;12.60;1.00
18670;DHT22;9464;44.918;9.670;2023-04-01T01:04:59;12.60;1.00
18670;DHT22;9464;44.918;9.670;2023-04-01T01:07:32;12.50;1.00
18670;DHT22;9464;44.918;9.670;2023-04-01T01:10:08;12.50;1.00
18670;DHT22;9464;44.918;9.670;2023-04-01T01:12:40;12.50;1.00
18670;DHT22;9464;44.918;9.670;2023-04-01T01:15:16;12.50;1.00
18670;DHT22;9464;44.918;9.670;2023-04-01T01:17:52;12.50;1.00
18670;DHT22;9464;44.918;9.670;2023-04-01T01:23:40;12.50;1.00
18670;DHT22;9464;44.918;9.670;2023-04-01T01:29:22;12.50;1.00
18670;DHT22;9464;44.918;9.670;2023-04-01T01:32:00;12.50;1.00
18670;DHT22;9464;44.918;9.670;2023-04-01T01:34:35;12.50;1.00
18670;DHT22;9464;44.918;9.670;2023-04-01T01:37:11;12.50;1.00
18670;DHT22;9464;44.918;9.670;2023-04-01T01:39:42;12.50;1.00
18670;DHT22;9464;44.918;9.670;2023-04-01T01:42:13;12.40;1.00
18670;DHT22;9464;44.918;9.670;2023-04-01T01:44:45;12.30;1.00
18670;DHT22;9464;44.918;9.670;2023-04-01T01:47:15;12.20;1.00
18670;DHT22;9464;44.918;9.670;2023-04-01T01:49:45;12.10;1.00
18670;DHT22;9464;44.918;9.670;2023-04-01T01:52:14;12.10;1.00
18670;DHT22;9464;44.918;9.670;2023-04-01T01:54:49;12.20;1.00
18670;DHT22;9464;44.918;9.670;2023-04-01T01:57:19;12.20;1.00
18670;DHT22;9464;44.918;9.670;2023-04-01T01:59:48;12.20;1.00
18670;DHT22;9464;44.918;9.670;2023-04-01T02:02:18;12.20;1.00
18670;DHT22;9464;44.918;9.670;2023-04-01T02:04:47;12.20;1.00
18670;DHT22;9464;44.918;9.670;2023-04-01T02:07:20;12.20;1.00
18670;DHT22;9464;44.918;9.670;2023-04-01T02:09:49;12.20;1.00
18670;DHT22;9464;44.918;9.670;2023-04-01T02:12:19;12.20;1.00
18670;DHT22;9464;44.918;9.670;2023-04-01T02:14:52;12.20;1.00
18670;DHT22;9464;44.918;9.670;2023-04-01T02:17:23;12.30;1.00
18670;DHT22;9464;44.918;9.670;2023-04-01T02:19:56;12.30;1.00
18670;DHT22;9464;44.918;9.670;2023-04-01T02:22:28;12.30;1.00
18670;DHT22;9464;44.918;9.670;2023-04-01T02:24:59;12.30;99.90
18670;DHT22;9464;44.918;9.670;2023-04-01T02:27:28;12.30;99.90
18670;DHT22;9464;44.918;9.670;2023-04-01T02:29:58;12.30;99.90
18670;DHT22;9464;44.918;9.670;2023-04-01T02:32:27;12.30;99.90
18670;DHT22;9464;44.918;9.670;2023-04-01T02:34:56;12.40;99.90
18670;DHT22;9464;44.918;9.670;2023-04-01T02:37:28;12.40;99.90
18670;DHT22;9464;44.918;9.670;2023-04-01T02:39:59;12.40;99.90
18670;DHT22;9464;44.918;9.670;2023-04-01T02:42:28;12.40;99.90
18670;DHT22;9464;44.918;9.670;2023-04-01T02:44:56;12.40;99.90
18670;DHT22;9464;44.918;9.670;2023-04-01T02:47:24;12.50;99.90
18670;DHT22;9464;44.918;9.670;2023-04-01T02:49:52;12.50;99.90
18670;DHT22;9464;44.918;9.670;2023-04-01T02:52:24;12.50;99.90
18670;DHT22;9464;44.918;9.670;2023-04-01T02:54:54;12.50;99.90
18670;DHT22;9464;44.918;9.670;2023-04-01T02:57:23;12.50;99.90
18670;DHT22;9464;44.918;9.670;2023-04-01T02:59:51;12.50;99.90
18670;DHT22;9464;44.918;9.670;2023-04-01T03:02:19;12.50;99.90
18670;DHT22;9464;44.918;9.670;2023-04-01T03:04:47;12.50;99.90
18670;DHT22;9464;44.918;9.670;2023-04-01T03:07:15;12.60;99.90
18670;DHT22;9464;44.918;9.670;2023-04-01T03:09:44;12.60;99.90
18670;DHT22;9464;44.918;9.670;2023-04-01T03:12:13;12.60;99.90
18670;DHT22;9464;44.918;9.670;2023-04-01T03:14:41;12.60;99.90
18670;DHT22;9464;44.918;9.670;2023-04-01T03:17:10;12.70;99.90
18670;DHT22;9464;44.918;9.670;2023-04-01T03:19:38;12.70;99.90
18670;DHT22;9464;44.918;9.670;2023-04-01T03:22:06;12.70;99.90
18670;DHT22;9464;44.918;9.670;2023-04-01T03:24:35;12.70;99.90
18670;DHT22;9464;44.918;9.670;2023-04-01T03:27:03;12.80;99.90
18670;DHT22;9464;44.918;9.670;2023-04-01T03:29:33;12.80;99.90
18670;DHT22;9464;44.918;9.670;2023-04-01T03:32:01;12.80;99.90
18670;DHT22;9464;44.918;9.670;2023-04-01T03:34:30;12.80;99.90
18670;DHT22;9464;44.918;9.670;2023-04-01T03:36:58;12.70;99.90
18670;DHT22;9464;44.918;9.670;2023-04-01T03:39:26;12.70;99.90
18670;DHT22;9464;44.918;9.670;2023-04-01T03:41:54;12.70;99.90
18670;DHT22;9464;44.918;9.670;2023-04-01T03:44:23;12.70;99.90
18670;DHT22;9464;44.918;9.670;2023-04-01T03:46:53;12.70;99.90
18670;DHT22;9464;44.918;9.670;2023-04-01T03:49:21;12.80;99.90
18670;DHT22;9464;44.918;9.670;2023-04-01T03:51:49;12.80;99.90
18670;DHT22;9464;44.918;9.670;2023-04-01T03:54:17;12.80;99.90
18670;DHT22;9464;44.918;9.670;2023-04-01T03:56:47;12.80;99.90
18670;DHT22;9464;44.918;9.670;2023-04-01T03:59:15;12.80;99.90
18670;DHT22;9464;44.918;9.670;2023-04-01T04:01:43;12.80;99.90
18670;DHT22;9464;44.918;9.670;2023-04-01T04:04:13;12.90;99.90
18670;DHT22;9464;44.918;9.670;2023-04-01T04:06:41;12.90;99.90
18670;DHT22;9464;44.918;9.670;2023-04-01T04:09:09;12.90;99.90
18670;DHT22;9464;44.918;9.670;2023-04-01T04:11:37;12.80;99.90
18670;DHT22;9464;44.918;9.670;2023-04-01T04:14:06;12.80;99.90
18670;DHT22;9464;44.918;9.670;2023-04-01T04:16:34;12.80;99.90
18670;DHT22;9464;44.918;9.670;2023-04-01T04:19:04;12.70;99.90
18670;DHT22;9464;44.918;9.670;2023-04-01T04:21:33;12.70;99.90
18670;DHT22;9464;44.918;9.670;2023-04-01T04:24:02;12.80;99.90
18670;DHT22;9464;44.918;9.670;2023-04-01T04:26:30;12.70;99.90
18670;DHT22;9464;44.918;9.670;2023-04-01T04:28:58;12.70;99.90
18670;DHT22;9464;44.918;9.670;2023-04-01T04:31:27;12.70;99.90
18670;DHT22;9464;44.918;9.670;2023-04-01T04:33:55;12.60;99.90
18670;DHT22;9464;44.918;9.670;2023-04-01T04:36:24;12.60;99.90
18670;DHT22;9464;44.918;9.670;2023-04-01T04:38:53;12.50;99.90
18670;DHT22;9464;44.918;9.670;2023-04-01T04:41:21;12.60;99.90
18670;DHT22;9464;44.918;9.670;2023-04-01T04:43:51;12.60;99.90
18670;DHT22;9464;44.918;9.670;2023-04-01T04:46:19;12.60;99.90
18670;DHT22;9464;44.918;9.670;2023-04-01T04:48:47;12.60;99.90
18670;DHT22;9464;44.918;9.670;2023-04-01T04:51:17;12.50;99.90
18670;DHT22;9464;44.918;9.670;2023-04-01T04:53:46;12.50;99.90
18670;DHT22;9464;44.918;9.670;2023-04-01T04:56:19;12.50;99.90
18670;DHT22;9464;44.918;9.670;2023-04-01T04:58:48;12.50;99.90
18670;DHT22;9464;44.918;9.670;2023-04-01T05:01:17;12.50;99.90
18670;DHT22;9464;44.918;9.670;2023-04-01T05:03:45;12.50;99.90
18670;DHT22;9464;44.918;9.670;2023-04-01T05:06:15;12.60;99.90
18670;DHT22;9464;44.918;9.670;2023-04-01T05:08:45;12.60;99.90
18670;DHT22;9464;44.918;9.670;2023-04-01T05:11:14;12.60;99.90
18670;DHT22;9464;44.918;9.670;2023-04-01T05:13:45;12.60;99.90
18670;DHT22;9464;44.918;9.670;2023-04-01T05:16:14;12.60;99.90
18670;DHT22;9464;44.918;9.670;2023-04-01T05:18:43;12.60;99.90
18670;DHT22;9464;44.918;9.670;2023-04-01T05:21:13;12.70;99.90
18670;DHT22;9464;44.918;9.670;2023-04-01T05:23:42;12.70;99.90
18670;DHT22;9464;44.918;9.670;2023-04-01T05:26:12;12.70;99.90
18670;DHT22;9464;44.918;9.670;2023-04-01T05:28:41;12.70;99.90
18670;DHT22;9464;44.918;9.670;2023-04-01T05:31:10;12.80;99.90
18670;DHT22;9464;44.918;9.670;2023-04-01T05:33:39;12.80;99.90
18670;DHT22;9464;44.918;9.670;2023-04-01T05:36:09;12.90;99.90
18670;DHT22;9464;44.918;9.670;2023-04-01T05:38:38;12.90;99.90
18670;DHT22;9464;44.918;9.670;2023-04-01T05:41:07;12.90;99.90
18670;DHT22;9464;44.918;9.670;2023-04-01T05:43:36;13.00;99.90
18670;DHT22;9464;44.918;9.670;2023-04-01T05:46:04;13.10;99.90
18670;DHT22;9464;44.918;9.670;2023-04-01T05:48:34;13.10;99.90
18670;DHT22;9464;44.918;9.670;2023-04-01T05:51:04;13.20;99.90
18670;DHT22;9464;44.918;9.670;2023-04-01T05:53:32;13.30;99.90
18670;DHT22;9464;44.918;9.670;2023-04-01T05:56:03;13.30;99.90
18670;DHT22;9464;44.918;9.670;2023-04-01T05:58:31;13.30;99.90
18670;DHT22;9464;44.918;9.670;2023-04-01T06:01:03;13.30;99.90
18670;DHT22;9464;44.918;9.670;2023-04-01T06:03:41;13.30;99.90
18670;DHT22;9464;44.918;9.670;2023-04-01T06:06:13;13.30;99.90
18670;DHT22;9464;44.918;9.670;2023-04-01T06:08:42;13.30;99.90
18670;DHT22;9464;44.918;9.670;2023-04-01T06:11:19;13.20;99.90
18670;DHT22;9464;44.918;9.670;2023-04-01T06:14:11;13.30;99.90
18670;DHT22;9464;44.918;9.670;2023-04-01T06:16:52;13.30;99.90
18670;DHT22;9464;44.918;9.670;2023-04-01T06:19:31;13.30;99.90
18670;DHT22;9464;44.918;9.670;2023-04-01T06:25:26;13.30;99.90
18670;DHT22;9464;44.918;9.670;2023-04-01T06:28:07;13.30;99.90
18670;DHT22;9464;44.918;9.670;2023-04-01T06:30:43;13.30;99.90
18670;DHT22;9464;44.918;9.670;2023-04-01T06:33:25;13.40;99.90
18670;DHT22;9464;44.918;9.670;2023-04-01T06:36:09;13.50;99.90
18670;DHT22;9464;44.918;9.670;2023-04-01T06:38:51;13.60;99.90
18670;DHT22;9464;44.918;9.670;2023-04-01T06:44:27;13.70;99.90
18670;DHT22;9464;44.918;9.670;2023-04-01T06:47:04;13.80;99.90
18670;DHT22;9464;44.918;9.670;2023-04-01T06:49:44;13.80;99.90
18670;DHT22;9464;44.918;9.670;2023-04-01T06:52:22;13.90;99.90
18670;DHT22;9464;44.918;9.670;2023-04-01T06:54:58;14.00;99.90
18670;DHT22;9464;44.918;9.670;2023-04-01T06:57:32;14.00;99.90
18670;DHT22;9464;44.918;9.670;2023-04-01T07:00:04;14.10;99.90
18670;DHT22;9464;44.918;9.670;2023-04-01T07:02:38;14.10;99.90
18670;DHT22;9464;44.918;9.670;2023-04-01T07:05:11;14.20;99.90
18670;DHT22;9464;44.918;9.670;2023-04-01T07:07:43;14.30;99.90
18670;DHT22;9464;44.918;9.670;2023-04-01T07:10:16;14.40;99.90
18670;DHT22;9464;44.918;9.670;2023-04-01T07:12:48;14.40;99.90
18670;DHT22;9464;44.918;9.670;2023-04-01T07:15:21;14.50;99.90
18670;DHT22;9464;44.918;9.670;2023-04-01T07:17:53;14.50;99.90
18670;DHT22;9464;44.918;9.670;2023-04-01T07:20:25;14.60;99.90
18670;DHT22;9464;44.918;9.670;2023-04-01T07:22:59;14.60;99.90
18670;DHT22;9464;44.918;9.670;2023-04-01T07:25:31;14.70;99.90
18670;DHT22;9464;44.918;9.670;2023-04-01T07:28:04;14.70;99.90
18670;DHT22;9464;44.918;9.670;2023-04-01T07:30:43;14.80;99.90
18670;DHT22;9464;44.918;9.670;2023-04-01T07:33:16;14.80;99.90
18670;DHT22;9464;44.918;9.670;2023-04-01T07:35:54;14.90;99.90
18670;DHT22;9464;44.918;9.670;2023-04-01T07:38:33;14.90;99.90
18670;DHT22;9464;44.918;9.670;2023-04-01T07:41:09;15.00;99.90
18670;DHT22;9464;44.918;9.670;2023-04-01T07:43:53;15.10;99.90
18670;DHT22;9464;44.918;9.670;2023-04-01T07:46:42;15.10;99.90
18670;DHT22;9464;44.918;9.670;2023-04-01T07:49:17;15.10;99.90
18670;DHT22;9464;44.918;9.670;2023-04-01T07:51:56;15.20;99.90
18670;DHT22;9464;44.918;9.670;2023-04-01T07:54:33;15.20;99.90
18670;DHT22;9464;44.918;9.670;2023-04-01T07:57:08;15.30;99.90
18670;DHT22;9464;44.918;9.670;2023-04-01T07:59:45;15.40;99.90
18670;DHT22;9464;44.918;9.670;2023-04-01T08:02:28;15.40;99.90
18670;DHT22;9464;44.918;9.670;2023-04-01T08:05:10;15.40;99.90
18670;DHT22;9464;44.918;9.670;2023-04-01T08:07:47;15.40;99.90
18670;DHT22;9464;44.918;9.670;2023-04-01T08:10:22;15.50;99.90
18670;DHT22;9464;44.918;9.670;2023-04-01T08:13:01;15.50;99.90
18670;DHT22;9464;44.918;9.670;2023-04-01T08:15:37;15.60;99.90
18670;DHT22;9464;44.918;9.670;2023-04-01T08:18:14;15.70;99.90
18670;DHT22;9464;44.918;9.670;2023-04-01T08:20:47;15.70;99.90
18670;DHT22;9464;44.918;9.670;2023-04-01T08:23:18;15.70;99.90
18670;DHT22;9464;44.918;9.670;2023-04-01T08:25:52;15.80;99.90
18670;DHT22;9464;44.918;9.670;2023-04-01T08:28:25;15.80;99.90
18670;DHT22;9464;44.918;9.670;2023-04-01T08:31:00;15.90;99.90
18670;DHT22;9464;44.918;9.670;2023-04-01T08:33:30;15.90;99.90
18670;DHT22;9464;44.918;9.670;2023-04-01T08:36:03;16.00;99.90
18670;DHT22;9464;44.918;9.670;2023-04-01T08:38:34;16.00;99.90
18670;DHT22;9464;44.918;9.670;2023-04-01T08:44:25;16.10;99.90
18670;DHT22;9464;44.918;9.670;2023-04-01T08:50:22;16.10;99.90
18670;DHT22;9464;44.918;9.670;2023-04-01T08:52:58;16.10;99.90
18670;DHT22;9464;44.918;9.670;2023-04-01T08:55:35;16.20;99.90
18670;DHT22;9464;44.918;9.670;2023-04-01T08:58:31;16.20;99.90
18670;DHT22;9464;44.918;9.670;2023-04-01T09:01:14;16.30;99.90
18670;DHT22;9464;44.918;9.670;2023-04-01T09:03:59;16.30;99.90
18670;DHT22;9464;44.918;9.670;2023-04-01T09:06:37;16.30;99.90
18670;DHT22;9464;44.918;9.670;2023-04-01T09:12:35;16.40;99.90
18670;DHT22;9464;44.918;9.670;2023-04-01T09:15:21;16.60;99.90
18670;DHT22;9464;44.918;9.670;2023-04-01T09:18:09;16.60;99.90
18670;DHT22;9464;44.918;9.670;2023-04-01T09:20:51;16.70;99.90
18670;DHT22;9464;44.918;9.670;2023-04-01T09:23:41;16.70;99.90
18670;DHT22;9464;44.918;9.670;2023-04-01T09:26:30;16.80;99.90
18670;DHT22;9464;44.918;9.670;2023-04-01T09:29:16;16.90;99.90
18670;DHT22;9464;44.918;9.670;2023-04-01T09:32:04;16.90;99.90
18670;DHT22;9464;44.918;9.670;2023-04-01T09:34:54;16.90;99.90
18670;DHT22;9464;44.918;9.670;2023-04-01T09:37:33;16.90;99.90
18670;DHT22;9464;44.918;9.670;2023-04-01T09:40:18;16.90;99.90
18670;DHT22;9464;44.918;9.670;2023-04-01T09:43:23;17.00;99.90
18670;DHT22;9464;44.918;9.670;2023-04-01T09:46:04;17.00;99.90
18670;DHT22;9464;44.918;9.670;2023-04-01T09:51:38;17.10;99.90
18670;DHT22;9464;44.918;9.670;2023-04-01T09:54:22;17.10;99.90
18670;DHT22;9464;44.918;9.670;2023-04-01T09:57:29;17.20;99.90
18670;DHT22;9464;44.918;9.670;2023-04-01T10:00:26;17.20;99.90
18670;DHT22;9464;44.918;9.670;2023-04-01T10:12:51;17.30;99.90
18670;DHT22;9464;44.918;9.670;2023-04-01T10:15:45;17.30;99.90
18670;DHT22;9464;44.918;9.670;2023-04-01T10:27:56;17.50;99.90
18670;DHT22;9464;44.918;9.670;2023-04-01T10:31:01;17.50;99.90
18670;DHT22;9464;44.918;9.670;2023-04-01T10:34:06;17.50;99.90
18670;DHT22;9464;44.918;9.670;2023-04-01T10:36:52;17.50;99.90
18670;DHT22;9464;44.918;9.670;2023-04-01T10:52:00;17.70;99.90
18670;DHT22;9464;44.918;9.670;2023-04-01T10:54:55;17.70;99.90
18670;DHT22;9464;44.918;9.670;2023-04-01T10:58:12;17.70;99.90
18670;DHT22;9464;44.918;9.670;2023-04-01T11:01:07;17.70;99.90
18670;DHT22;9464;44.918;9.670;2023-04-01T11:04:25;17.70;99.90
18670;DHT22;9464;44.918;9.670;2023-04-01T11:13:33;17.80;99.90
18670;DHT22;9464;44.918;9.670;2023-04-01T11:19:38;17.90;99.90
18670;DHT22;9464;44.918;9.670;2023-04-01T11:22:44;17.90;99.90
18670;DHT22;9464;44.918;9.670;2023-04-01T11:25:25;18.10;99.90
18670;DHT22;9464;44.918;9.670;2023-04-01T11:28:16;18.00;99.90
18670;DHT22;9464;44.918;9.670;2023-04-01T11:31:10;18.00;99.90
18670;DHT22;9464;44.918;9.670;2023-04-01T11:33:47;18.00;99.90
18670;DHT22;9464;44.918;9.670;2023-04-01T11:36:25;18.00;99.90
18670;DHT22;9464;44.918;9.670;2023-04-01T11:39:22;18.00;99.90
18670;DHT22;9464;44.918;9.670;2023-04-01T11:41:58;18.10;99.90
18670;DHT22;9464;44.918;9.670;2023-04-01T11:44:29;18.10;99.90
18670;DHT22;9464;44.918;9.670;2023-04-01T11:47:10;18.00;99.90
18670;DHT22;9464;44.918;9.670;2023-04-01T11:49:53;18.00;99.90
18670;DHT22;9464;44.918;9.670;2023-04-01T11:55:27;18.00;99.90
18670;DHT22;9464;44.918;9.670;2023-04-01T11:58:26;18.10;99.90
18670;DHT22;9464;44.918;9.670;2023-04-01T12:01:13;18.20;99.90
18670;DHT22;9464;44.918;9.670;2023-04-01T12:07:19;18.10;99.90
18670;DHT22;9464;44.918;9.670;2023-04-01T12:09:55;18.20;99.90
18670;DHT22;9464;44.918;9.670;2023-04-01T12:12:36;18.10;99.90
18670;DHT22;9464;44.918;9.670;2023-04-01T12:15:26;18.10;99.90
18670;DHT22;9464;44.918;9.670;2023-04-01T12:18:03;18.20;99.90
18670;DHT22;9464;44.918;9.670;2023-04-01T12:20:43;18.20;99.90
18670;DHT22;9464;44.918;9.670;2023-04-01T12:23:41;18.20;99.90
18670;DHT22;9464;44.918;9.670;2023-04-01T12:26:44;18.30;99.90
18670;DHT22;9464;44.918;9.670;2023-04-01T12:32:15;18.30;99.90
18670;DHT22;9464;44.918;9.670;2023-04-01T12:37:48;18.40;99.90
18670;DHT22;9464;44.918;9.670;2023-04-01T12:40:26;18.40;99.90
18670;DHT22;9464;44.918;9.670;2023-04-01T12:43:05;18.40;99.90
18670;DHT22;9464;44.918;9.670;2023-04-01T12:45:44;18.40;99.90
18670;DHT22;9464;44.918;9.670;2023-04-01T12:48:38;18.50;99.90
18670;DHT22;9464;44.918;9.670;2023-04-01T12:51:45;18.60;99.90
18670;DHT22;9464;44.918;9.670;2023-04-01T13:00:48;18.50;99.90
18670;DHT22;9464;44.918;9.670;2023-04-01T13:03:39;18.50;99.90
18670;DHT22;9464;44.918;9.670;2023-04-01T13:06:36;18.70;99.90
18670;DHT22;9464;44.918;9.670;2023-04-01T13:09:18;18.70;99.90
18670;DHT22;9464;44.918;9.670;2023-04-01T13:12:05;18.60;99.90
18670;DHT22;9464;44.918;9.670;2023-04-01T13:15:06;18.70;99.90
18670;DHT22;9464;44.918;9.670;2023-04-01T13:17:44;18.70;99.90
18670;DHT22;9464;44.918;9.670;2023-04-01T13:20:22;18.70;99.90
18670;DHT22;9464;44.918;9.670;2023-04-01T13:23:05;18.70;99.90
18670;DHT22;9464;44.918;9.670;2023-04-01T13:25:43;18.80;99.90
18670;DHT22;9464;44.918;9.670;2023-04-01T13:28:21;18.70;99.90
18670;DHT22;9464;44.918;9.670;2023-04-01T13:31:00;18.80;99.90
18670;DHT22;9464;44.918;9.670;2023-04-01T13:33:34;18.80;99.90
18670;DHT22;9464;44.918;9.670;2023-04-01T13:36:19;18.80;99.90
18670;DHT22;9464;44.918;9.670;2023-04-01T13:39:08;18.90;99.90
18670;DHT22;9464;44.918;9.670;2023-04-01T13:41:53;18.90;99.90
18670;DHT22;9464;44.918;9.670;2023-04-01T13:44:29;18.90;99.90
18670;DHT22;9464;44.918;9.670;2023-04-01T13:50:23;18.90;99.90
18670;DHT22;9464;44.918;9.670;2023-04-01T13:56:29;18.90;99.90
18670;DHT22;9464;44.918;9.670;2023-04-01T13:59:12;18.90;99.90
18670;DHT22;9464;44.918;9.670;2023-04-01T14:01:52;19.00;99.90
18670;DHT22;9464;44.918;9.670;2023-04-01T14:04:47;19.00;99.90
18670;DHT22;9464;44.918;9.670;2023-04-01T14:07:30;19.00;99.90
18670;DHT22;9464;44.918;9.670;2023-04-01T14:10:18;19.00;99.90
18670;DHT22;9464;44.918;9.670;2023-04-01T14:12:51;19.00;99.90
18670;DHT22;9464;44.918;9.670;2023-04-01T14:15:41;19.00;99.90
18670;DHT22;9464;44.918;9.670;2023-04-01T14:18:25;19.10;99.90
18670;DHT22;9464;44.918;9.670;2023-04-01T14:21:17;19.00;99.90
18670;DHT22;9464;44.918;9.670;2023-04-01T14:24:18;19.10;99.90
18670;DHT22;9464;44.918;9.670;2023-04-01T14:27:12;19.10;99.90
18670;DHT22;9464;44.918;9.670;2023-04-01T14:29:59;19.10;99.90
18670;DHT22;9464;44.918;9.670;2023-04-01T14:32:40;19.10;99.90
18670;DHT22;9464;44.918;9.670;2023-04-01T14:35:22;19.20;99.90
18670;DHT22;9464;44.918;9.670;2023-04-01T14:38:14;19.20;99.90
18670;DHT22;9464;44.918;9.670;2023-04-01T14:40:55;19.10;99.90
18670;DHT22;9464;44.918;9.670;2023-04-01T14:43:42;19.10;99.90
18670;DHT22;9464;44.918;9.670;2023-04-01T14:46:27;19.10;99.90
18670;DHT22;9464;44.918;9.670;2023-04-01T14:49:01;19.20;99.90
18670;DHT22;9464;44.918;9.670;2023-04-01T14:51:31;19.20;99.90
18670;DHT22;9464;44.918;9.670;2023-04-01T14:54:04;19.20;99.90
18670;DHT22;9464;44.918;9.670;2023-04-01T14:56:38;19.20;99.90
18670;DHT22;9464;44.918;9.670;2023-04-01T14:59:10;19.30;99.90
18670;DHT22;9464;44.918;9.670;2023-04-01T15:01:47;19.30;99.90
18670;DHT22;9464;44.918;9.670;2023-04-01T15:04:39;19.20;99.90
18670;DHT22;9464;44.918;9.670;2023-04-01T15:10:12;19.30;99.90
18670;DHT22;9464;44.918;9.670;2023-04-01T15:12:52;19.20;99.90
18670;DHT22;9464;44.918;9.670;2023-04-01T15:15:30;19.20;99.90
18670;DHT22;9464;44.918;9.670;2023-04-01T15:18:10;19.20;99.90
18670;DHT22;9464;44.918;9.670;2023-04-01T15:23:49;19.20;99.90
18670;DHT22;9464;44.918;9.670;2023-04-01T15:26:30;19.20;99.90
18670;DHT22;9464;44.918;9.670;2023-04-01T15:29:37;19.20;99.90
18670;DHT22;9464;44.918;9.670;2023-04-01T15:32:17;19.20;99.90
18670;DHT22;9464;44.918;9.670;2023-04-01T15:34:52;19.20;99.90
18670;DHT22;9464;44.918;9.670;2023-04-01T15:37:29;19.20;99.90
18670;DHT22;9464;44.918;9.670;2023-04-01T15:40:15;19.20;99.90
18670;DHT22;9464;44.918;9.670;2023-04-01T15:42:56;19.20;99.90
18670;DHT22;9464;44.918;9.670;2023-04-01T15:45:35;19.20;99.90
18670;DHT22;9464;44.918;9.670;2023-04-01T15:48:19;19.20;99.90
18670;DHT22;9464;44.918;9.670;2023-04-01T15:51:02;19.20;99.90
18670;DHT22;9464;44.918;9.670;2023-04-01T15:56:45;19.20;99.90
18670;DHT22;9464;44.918;9.670;2023-04-01T15:59:44;19.20;99.90
18670;DHT22;9464;44.918;9.670;2023-04-01T16:02:21;19.20;99.90
18670;DHT22;9464;44.918;9.670;2023-04-01T16:04:57;19.10;99.90
18670;DHT22;9464;44.918;9.670;2023-04-01T16:07:41;19.10;99.90
18670;DHT22;9464;44.918;9.670;2023-04-01T16:10:21;19.10;99.90
18670;DHT22;9464;44.918;9.670;2023-04-01T16:13:00;19.10;99.90
18670;DHT22;9464;44.918;9.670;2023-04-01T16:15:39;19.10;99.90
18670;DHT22;9464;44.918;9.670;2023-04-01T16:18:31;19.10;99.90
18670;DHT22;9464;44.918;9.670;2023-04-01T16:21:05;19.10;99.90
18670;DHT22;9464;44.918;9.670;2023-04-01T16:23:38;19.10;99.90
18670;DHT22;9464;44.918;9.670;2023-04-01T16:26:12;19.00;99.90
18670;DHT22;9464;44.918;9.670;2023-04-01T16:28:50;19.00;99.90
18670;DHT22;9464;44.918;9.670;2023-04-01T16:31:32;19.00;99.90
18670;DHT22;9464;44.918;9.670;2023-04-01T16:34:08;19.00;99.90
18670;DHT22;9464;44.918;9.670;2023-04-01T16:36:43;18.90;99.90
18670;DHT22;9464;44.918;9.670;2023-04-01T16:39:28;18.90;99.90
18670;DHT22;9464;44.918;9.670;2023-04-01T16:45:00;18.80;99.90
18670;DHT22;9464;44.918;9.670;2023-04-01T16:47:34;18.70;99.90
18670;DHT22;9464;44.918;9.670;2023-04-01T16:50:14;18.70;99.90
18670;DHT22;9464;44.918;9.670;2023-04-01T16:52:56;18.70;99.90
18670;DHT22;9464;44.918;9.670;2023-04-01T16:55:35;18.70;99.90
18670;DHT22;9464;44.918;9.670;2023-04-01T16:58:10;18.70;99.90
18670;DHT22;9464;44.918;9.670;2023-04-01T17:00:48;18.60;99.90
18670;DHT22;9464;44.918;9.670;2023-04-01T17:03:25;18.60;99.90
18670;DHT22;9464;44.918;9.670;2023-04-01T17:06:04;18.60;99.90
18670;DHT22;9464;44.918;9.670;2023-04-01T17:08:51;18.60;99.90
18670;DHT22;9464;44.918;9.670;2023-04-01T17:11:25;18.50;99.90
18670;DHT22;9464;44.918;9.670;2023-04-01T17:14:04;18.50;99.90
18670;DHT22;9464;44.918;9.670;2023-04-01T17:16:55;18.50;99.90
18670;DHT22;9464;44.918;9.670;2023-04-01T17:19:39;18.50;99.90
18670;DHT22;9464;44.918;9.670;2023-04-01T17:22:21;18.50;99.90
18670;DHT22;9464;44.918;9.670;2023-04-01T17:25:03;18.40;99.90
18670;DHT22;9464;44.918;9.670;2023-04-01T17:27:44;18.40;99.90
18670;DHT22;9464;44.918;9.670;2023-04-01T17:30:25;18.30;99.90
18670;DHT22;9464;44.918;9.670;2023-04-01T17:33:17;18.30;99.90
18670;DHT22;9464;44.918;9.670;2023-04-01T17:35:56;18.30;99.90
18670;DHT22;9464;44.918;9.670;2023-04-01T17:41:26;18.20;99.90
18670;DHT22;9464;44.918;9.670;2023-04-01T17:44:04;18.10;99.90
18670;DHT22;9464;44.918;9.670;2023-04-01T17:46:50;18.10;99.90
18670;DHT22;9464;44.918;9.670;2023-04-01T17:49:28;18.00;99.90
18670;DHT22;9464;44.918;9.670;2023-04-01T17:52:04;17.90;99.90
18670;DHT22;9464;44.918;9.670;2023-04-01T17:54:40;17.80;99.90
18670;DHT22;9464;44.918;9.670;2023-04-01T17:57:27;17.80;99.90
18670;DHT22;9464;44.918;9.670;2023-04-01T18:00:02;17.70;99.90
18670;DHT22;9464;44.918;9.670;2023-04-01T18:02:38;17.60;99.90
18670;DHT22;9464;44.918;9.670;2023-04-01T18:05:23;17.50;99.90
18670;DHT22;9464;44.918;9.670;2023-04-01T18:08:09;17.40;99.90
18670;DHT22;9464;44.918;9.670;2023-04-01T18:10:48;17.40;99.90
18670;DHT22;9464;44.918;9.670;2023-04-01T18:16:32;17.30;99.90
18670;DHT22;9464;44.918;9.670;2023-04-01T18:19:09;17.30;99.90
18670;DHT22;9464;44.918;9.670;2023-04-01T18:21:46;17.30;99.90
18670;DHT22;9464;44.918;9.670;2023-04-01T18:24:21;17.30;99.90
18670;DHT22;9464;44.918;9.670;2023-04-01T18:27:02;17.30;99.90
18670;DHT22;9464;44.918;9.670;2023-04-01T18:29:39;17.30;99.90
18670;DHT22;9464;44.918;9.670;2023-04-01T18:32:17;17.30;99.90
18670;DHT22;9464;44.918;9.670;2023-04-01T18:34:55;17.20;99.90
18670;DHT22;9464;44.918;9.670;2023-04-01T18:37:27;17.00;99.90
18670;DHT22;9464;44.918;9.670;2023-04-01T18:40:10;17.00;99.90